Time;durP1;ratioP1;P1;durP2;ratioP2;P2;SDS_P1;SDS_P2;PMS_P1;PMS_P2;Temp;Humidity;BMP_temperature;BMP_pressure;BME280_temperature;BME280_humidity;BME280_pressure;Samples;Min_cycle;Max_cycle;Signal;HPM_P1;HPM_P2
2022/11/09 00:00:51;;;;;;;23.08;13.27;;;22.30;59.60;;;;;;5032776;28;20041;-72
2022/11/09 00:03:18;;;;;;;24.35;12.77;;;22.20;59.40;;;;;;5032211;28;20068;-72
2022/11/09 00:05:54;;;;;;;29.42;15.68;;;22.20;59.30;;;;;;5032298;28;20037;-72
2022/11/09 00:08:20;;;;;;;30.98;16.67;;;22.30;59.30;;;;;;5032644;28;20041;-72
2022/11/09 00:10:46;;;;;;;31.70;17.73;;;22.40;59.20;;;;;;5030180;28;20482;-72
2022/11/09 00:13:12;;;;;;;32.38;15.82;;;22.10;59.00;;;;;;5032425;28;20036;-72
2022/11/09 00:15:38;;;;;;;36.65;15.93;;;22.30;59.00;;;;;;5032783;28;20025;-73
2022/11/09 00:18:04;;;;;;;30.10;17.02;;;22.40;58.90;;;;;;5032422;28;20340;-72
2022/11/09 00:20:29;;;;;;;30.77;14.77;;;22.30;58.80;;;;;;5032649;28;20466;-72
2022/11/09 00:22:56;;;;;;;32.83;16.17;;;22.20;58.60;;;;;;5032431;28;20037;-72
2022/11/09 00:25:22;;;;;;;30.13;15.60;;;22.40;58.80;;;;;;5032651;28;20057;-72
2022/11/09 00:27:48;;;;;;;26.50;15.48;;;22.40;58.70;;;;;;5031135;28;20038;-71
2022/11/09 00:30:14;;;;;;;26.75;16.40;;;22.30;58.80;;;;;;5031097;28;20351;-71
2022/11/09 00:32:40;;;;;;;33.25;17.33;;;22.30;58.60;;;;;;5032099;28;20375;-72
2022/11/09 00:35:06;;;;;;;31.83;17.02;;;22.30;58.70;;;;;;5031029;28;20030;-72
2022/11/09 00:37:34;;;;;;;36.60;17.10;;;22.30;58.70;;;;;;5030094;28;20184;-72
2022/11/09 00:40:00;;;;;;;34.90;17.17;;;22.30;58.70;;;;;;5030795;28;20037;-72
2022/11/09 00:42:26;;;;;;;27.80;18.55;;;22.30;58.60;;;;;;5031862;28;20490;-72
2022/11/09 00:44:52;;;;;;;27.45;15.95;;;22.30;58.80;;;;;;5030349;28;20045;-72
2022/11/09 00:47:18;;;;;;;27.10;17.05;;;22.30;58.60;;;;;;5030698;28;20132;-71
2022/11/09 00:49:46;;;;;;;33.78;17.77;;;22.30;58.60;;;;;;5031715;28;20045;-72
2022/11/09 00:52:11;;;;;;;33.90;16.42;;;22.20;58.50;;;;;;5032012;28;20409;-72
2022/11/09 00:54:37;;;;;;;25.52;15.05;;;22.30;58.80;;;;;;5029461;28;20049;-72
2022/11/09 00:57:03;;;;;;;19.05;12.13;;;22.20;58.50;;;;;;5032032;28;20041;-72
2022/11/09 00:59:30;;;;;;;21.75;13.38;;;22.20;58.50;;;;;;5030422;28;20442;-72
2022/11/09 01:01:56;;;;;;;24.33;12.00;;;22.20;58.70;;;;;;5030579;28;20057;-71
2022/11/09 01:04:21;;;;;;;20.95;12.85;;;22.20;58.40;;;;;;5031512;28;20100;-71
2022/11/09 01:06:47;;;;;;;20.65;11.30;;;22.10;58.40;;;;;;5029221;28;20087;-72
2022/11/09 01:09:13;;;;;;;17.13;10.43;;;22.20;58.40;;;;;;5031617;28;20037;-71
2022/11/09 01:11:40;;;;;;;18.52;10.90;;;22.20;58.40;;;;;;5045341;28;20041;-71
2022/11/09 01:14:06;;;;;;;16.42;10.07;;;22.20;58.30;;;;;;5031496;28;20033;-72
2022/11/09 01:16:34;;;;;;;18.20;10.40;;;22.30;58.30;;;;;;5030005;28;20148;-72
2022/11/09 01:19:03;;;;;;;19.45;9.68;;;22.30;58.20;;;;;;5030115;28;20097;-71
2022/11/09 01:21:29;;;;;;;17.10;9.50;;;22.30;58.20;;;;;;5031374;28;20037;-69
2022/11/09 01:23:58;;;;;;;16.77;9.15;;;22.30;58.20;;;;;;5029965;28;20041;-72
2022/11/09 01:26:27;;;;;;;18.90;9.50;;;22.30;58.10;;;;;;5064518;28;20044;-71
2022/11/09 01:28:53;;;;;;;17.77;10.15;;;22.30;58.00;;;;;;5048578;28;20224;-72
2022/11/09 01:31:20;;;;;;;17.77;9.60;;;22.30;58.00;;;;;;5048336;28;20140;-71
2022/11/09 01:33:47;;;;;;;15.73;9.70;;;22.20;57.90;;;;;;5048368;28;20753;-71
2022/11/09 01:36:23;;;;;;;14.93;9.35;;;22.20;58.00;;;;;;5048708;28;20061;-72
2022/11/09 01:38:50;;;;;;;13.75;9.35;;;22.20;57.90;;;;;;5048598;28;20049;-72
2022/11/09 01:41:25;;;;;;;17.25;9.05;;;22.30;58.10;;;;;;5048381;28;20107;-71
2022/11/09 01:44:15;;;;;;;14.27;8.73;;;22.30;58.10;;;;;;5047682;28;20078;-72
2022/11/09 01:47:13;;;;;;;16.35;8.82;;;22.30;58.00;;;;;;5048329;28;20114;-72
2022/11/09 01:50:08;;;;;;;16.20;8.35;;;22.30;58.10;;;;;;4969695;28;20055;-72
2022/11/09 01:52:39;;;;;;;20.13;9.23;;;22.10;57.90;;;;;;4950483;29;20134;-71
2022/11/09 01:55:11;;;;;;;14.68;8.75;;;22.10;58.00;;;;;;4950175;29;20051;-71
2022/11/09 01:57:44;;;;;;;16.20;10.38;;;22.20;58.10;;;;;;4955607;28;20090;-72
2022/11/09 02:00:13;;;;;;;17.77;8.25;;;22.10;58.10;;;;;;4930725;29;20059;-72
2022/11/09 02:02:46;;;;;;;17.60;8.88;;;22.20;58.00;;;;;;4915447;29;20047;-72
2022/11/09 02:05:18;;;;;;;17.67;9.40;;;22.10;58.00;;;;;;4947006;29;20146;-71
2022/11/09 02:07:48;;;;;;;16.25;9.43;;;22.20;58.00;;;;;;4946963;29;20134;-72
2022/11/09 02:10:28;;;;;;;13.27;8.57;;;22.20;58.00;;;;;;4930900;29;20111;-72
2022/11/09 02:12:57;;;;;;;19.30;8.60;;;22.20;57.90;;;;;;4947134;29;20510;-72
2022/11/09 02:15:24;;;;;;;14.65;9.20;;;22.20;57.90;;;;;;4930968;29;20075;-71
2022/11/09 02:17:53;;;;;;;17.02;8.98;;;22.20;57.90;;;;;;4931207;29;20047;-72
2022/11/09 02:20:21;;;;;;;12.88;8.90;;;22.20;57.90;;;;;;4915004;29;20135;-71
2022/11/09 02:22:47;;;;;;;15.98;9.45;;;22.30;57.90;;;;;;4931027;29;20460;-71
2022/11/09 02:25:14;;;;;;;15.38;9.70;;;22.30;57.90;;;;;;4931691;28;20582;-72
2022/11/09 02:27:42;;;;;;;16.13;9.85;;;22.30;57.90;;;;;;4954982;28;20035;-72
2022/11/09 02:30:10;;;;;;;18.08;10.52;;;22.20;57.80;;;;;;5023232;28;20095;-71
2022/11/09 02:32:36;;;;;;;18.08;10.48;;;22.20;57.80;;;;;;5033274;28;20127;-72
2022/11/09 02:35:03;;;;;;;12.90;8.98;;;22.20;57.80;;;;;;5033219;28;20033;-72
2022/11/09 02:37:38;;;;;;;16.42;9.15;;;22.00;57.70;;;;;;5032921;28;20037;-71
2022/11/09 02:40:10;;;;;;;12.43;8.68;;;22.20;57.90;;;;;;5016034;28;20034;-71
2022/11/09 02:42:37;;;;;;;19.88;8.20;;;22.00;57.80;;;;;;5033040;28;20530;-71
2022/11/09 02:45:03;;;;;;;15.40;9.90;;;22.00;57.90;;;;;;5032932;28;20025;-70
2022/11/09 02:47:29;;;;;;;18.50;10.15;;;22.00;58.00;;;;;;5034068;28;20080;-71
2022/11/09 02:49:56;;;;;;;14.93;9.60;;;22.00;58.00;;;;;;5033039;28;20041;-72
2022/11/09 02:52:23;;;;;;;14.80;8.75;;;22.10;58.10;;;;;;5016418;28;20056;-71
2022/11/09 02:54:50;;;;;;;15.00;9.68;;;22.00;58.00;;;;;;5032808;28;20118;-72
2022/11/09 02:57:16;;;;;;;15.75;9.07;;;22.00;58.00;;;;;;5032621;28;20033;-72
2022/11/09 02:59:42;;;;;;;16.92;9.57;;;21.90;58.10;;;;;;5034132;28;20474;-72
2022/11/09 03:02:09;;;;;;;14.23;9.30;;;21.90;58.00;;;;;;5032660;28;20037;-72
2022/11/09 03:04:35;;;;;;;16.98;9.15;;;21.90;58.00;;;;;;5032391;28;20037;-70
2022/11/09 03:07:03;;;;;;;17.55;9.18;;;21.90;57.80;;;;;;5032633;28;20049;-72
2022/11/09 03:09:30;;;;;;;16.50;9.20;;;21.90;57.90;;;;;;5032350;28;20037;-72
2022/11/09 03:11:56;;;;;;;13.45;9.18;;;22.00;57.80;;;;;;5033880;28;20049;-69
2022/11/09 03:14:21;;;;;;;12.85;8.30;;;22.00;57.80;;;;;;5032681;28;20347;-72
2022/11/09 03:16:52;;;;;;;19.88;9.82;;;22.00;57.70;;;;;;5032304;28;20048;-71
2022/11/09 03:19:18;;;;;;;22.05;10.40;;;22.00;57.70;;;;;;5048931;28;20057;-71
2022/11/09 03:21:47;;;;;;;18.02;9.75;;;22.00;57.60;;;;;;5032355;28;20080;-72
2022/11/09 03:24:13;;;;;;;16.48;9.85;;;22.00;57.60;;;;;;5033411;28;20064;-72
2022/11/09 03:26:40;;;;;;;17.15;9.90;;;22.00;57.60;;;;;;5032044;28;20443;-72
2022/11/09 03:29:06;;;;;;;14.43;10.10;;;22.00;57.60;;;;;;5031998;28;20045;-71
2022/11/09 03:31:32;;;;;;;15.77;10.10;;;22.00;57.50;;;;;;5050621;28;20053;-71
2022/11/09 03:34:02;;;;;;;16.48;9.45;;;22.00;57.50;;;;;;5050815;28;20652;-72
2022/11/09 03:36:28;;;;;;;18.05;10.15;;;22.10;57.60;;;;;;5050583;28;20071;-71
2022/11/09 03:38:54;;;;;;;15.93;9.32;;;22.00;57.50;;;;;;5036923;28;20478;-72
2022/11/09 03:41:21;;;;;;;20.20;10.70;;;22.10;57.50;;;;;;5013930;28;20506;-72
2022/11/09 03:43:47;;;;;;;14.98;9.82;;;22.00;57.50;;;;;;5030606;28;20359;-72
2022/11/09 03:46:13;;;;;;;21.70;11.43;;;22.00;57.60;;;;;;5030207;28;20045;-72
2022/11/09 03:48:39;;;;;;;19.27;11.43;;;22.00;57.60;;;;;;5030461;28;20662;-72
2022/11/09 03:51:05;;;;;;;25.33;12.25;;;22.00;57.50;;;;;;5030649;28;20093;-72
2022/11/09 03:53:31;;;;;;;25.95;11.85;;;21.90;57.60;;;;;;5030544;28;20120;-71
2022/11/09 03:55:57;;;;;;;19.13;11.05;;;22.00;57.60;;;;;;5030283;28;20112;-72
2022/11/09 03:58:23;;;;;;;19.73;10.55;;;21.80;57.40;;;;;;5030016;28;20045;-72
2022/11/09 04:00:49;;;;;;;17.70;9.30;;;21.90;57.50;;;;;;5030091;28;20625;-72
2022/11/09 04:03:15;;;;;;;19.70;9.20;;;21.90;57.60;;;;;;5030050;28;20545;-72
2022/11/09 04:05:41;;;;;;;16.17;9.57;;;21.80;57.50;;;;;;5030144;28;20029;-72
2022/11/09 04:08:07;;;;;;;19.02;9.20;;;21.80;57.40;;;;;;5027516;28;20057;-71
2022/11/09 04:10:33;;;;;;;19.00;9.35;;;21.90;57.40;;;;;;5013055;28;20058;-72
2022/11/09 04:12:59;;;;;;;15.20;8.80;;;22.00;57.40;;;;;;5012816;28;20104;-72
2022/11/09 04:15:25;;;;;;;21.58;9.90;;;21.90;57.30;;;;;;5012921;28;20120;-72
2022/11/09 04:18:01;;;;;;;20.52;9.55;;;21.90;57.30;;;;;;5011601;28;20056;-72
2022/11/09 04:20:28;;;;;;;18.65;9.38;;;22.00;57.20;;;;;;5012749;28;20041;-72
2022/11/09 04:23:02;;;;;;;13.98;8.48;;;22.00;57.20;;;;;;5012639;28;20105;-72
2022/11/09 04:25:32;;;;;;;14.80;7.95;;;21.90;57.20;;;;;;5012699;28;20041;-72
2022/11/09 04:28:00;;;;;;;17.25;9.73;;;22.00;57.20;;;;;;5009778;28;20057;-72
2022/11/09 04:30:27;;;;;;;16.50;8.68;;;22.00;57.00;;;;;;5009974;28;20052;-71
2022/11/09 04:32:54;;;;;;;12.40;7.95;;;21.90;57.10;;;;;;5010130;28;20053;-71
2022/11/09 04:35:21;;;;;;;17.02;8.88;;;22.00;57.00;;;;;;5012214;28;20569;-72
2022/11/09 04:37:55;;;;;;;15.57;8.18;;;22.10;56.90;;;;;;5029421;28;20056;-71
2022/11/09 04:40:22;;;;;;;12.63;8.13;;;22.00;56.80;;;;;;5029461;28;20409;-72
2022/11/09 04:42:48;;;;;;;13.63;8.52;;;22.00;56.80;;;;;;5029544;28;20085;-72
2022/11/09 04:45:14;;;;;;;20.13;8.65;;;22.00;56.80;;;;;;5029424;28;20529;-71
2022/11/09 04:47:40;;;;;;;13.77;8.20;;;22.00;56.80;;;;;;5029373;28;20572;-72
2022/11/09 04:50:07;;;;;;;14.60;8.57;;;22.10;56.90;;;;;;5028906;28;20116;-72
2022/11/09 04:52:33;;;;;;;12.75;7.85;;;22.10;57.00;;;;;;5029552;28;20598;-72
2022/11/09 04:54:59;;;;;;;16.20;8.63;;;22.20;56.60;;;;;;5029378;28;20041;-73
2022/11/09 04:57:25;;;;;;;13.27;6.88;;;22.40;56.20;;;;;;5029572;28;20089;-73
2022/11/09 04:59:51;;;;;;;16.20;7.90;;;22.40;56.00;;;;;;5031024;28;20136;-72
2022/11/09 05:02:17;;;;;;;14.98;8.10;;;22.40;55.80;;;;;;5031793;28;20482;-72
2022/11/09 05:04:43;;;;;;;15.77;7.78;;;22.50;55.70;;;;;;5031654;28;20323;-72
2022/11/09 05:07:09;;;;;;;16.60;8.30;;;22.60;55.70;;;;;;5031369;28;20107;-71
2022/11/09 05:09:35;;;;;;;21.33;9.77;;;22.60;55.50;;;;;;5030940;28;20033;-75
2022/11/09 05:12:01;;;;;;;17.00;8.90;;;22.60;57.90;;;;;;5031640;28;20035;-74
2022/11/09 05:14:27;;;;;;;20.42;10.27;;;22.90;60.40;;;;;;5031417;28;20108;-72
2022/11/09 05:16:53;;;;;;;18.50;10.05;;;23.10;62.80;;;;;;5031561;28;20558;-71
2022/11/09 05:19:19;;;;;;;17.30;9.45;;;23.40;64.90;;;;;;5031277;28;20029;-72
2022/11/09 05:21:45;;;;;;;18.70;9.13;;;23.40;69.50;;;;;;5031767;28;20121;-74
2022/11/09 05:24:11;;;;;;;17.33;10.10;;;23.40;61.10;;;;;;5031429;28;20108;-73
2022/11/09 05:26:40;;;;;;;19.75;9.93;;;23.20;60.30;;;;;;5030221;28;20033;-70
2022/11/09 05:29:11;;;;;;;12.40;8.38;;;23.10;60.40;;;;;;5028734;28;20103;-72
2022/11/09 05:31:38;;;;;;;17.08;7.85;;;23.10;60.10;;;;;;5031371;28;20037;-72
2022/11/09 05:34:06;;;;;;;19.33;9.23;;;23.10;59.00;;;;;;5029157;28;20565;-73
2022/11/09 05:36:34;;;;;;;15.45;9.30;;;23.10;57.90;;;;;;5031455;28;20038;-73
2022/11/09 05:39:00;;;;;;;14.63;8.93;;;23.20;56.70;;;;;;5031236;28;20120;-73
2022/11/09 05:41:26;;;;;;;20.17;8.55;;;23.30;55.70;;;;;;5031113;28;20124;-73
2022/11/09 05:43:53;;;;;;;13.00;8.32;;;23.30;54.70;;;;;;5031080;28;20058;-73
2022/11/09 05:46:19;;;;;;;19.00;9.10;;;23.30;53.80;;;;;;5031105;28;20041;-74
2022/11/09 05:48:45;;;;;;;13.23;8.38;;;23.30;53.00;;;;;;5031023;28;20387;-73
2022/11/09 05:51:13;;;;;;;19.98;9.73;;;23.30;52.30;;;;;;5031182;28;20114;-72
2022/11/09 05:53:39;;;;;;;22.27;12.00;;;23.40;51.60;;;;;;5031190;28;20033;-71
2022/11/09 05:56:10;;;;;;;18.60;11.98;;;23.40;49.40;;;;;;5030775;28;20120;-72
2022/11/09 05:58:37;;;;;;;17.40;10.73;;;23.20;49.40;;;;;;5030325;28;20037;-72
2022/11/09 06:01:09;;;;;;;12.43;7.88;;;23.20;50.80;;;;;;5030326;28;20034;-72
2022/11/09 06:03:35;;;;;;;16.23;11.05;;;23.20;51.00;;;;;;5033548;28;20041;-72
2022/11/09 06:06:04;;;;;;;15.30;9.95;;;23.20;47.70;;;;;;5034364;28;20033;-69
2022/11/09 06:08:30;;;;;;;17.55;9.95;;;23.30;48.70;;;;;;5034096;28;20046;-74
2022/11/09 06:11:01;;;;;;;17.95;10.35;;;23.20;49.50;;;;;;5034549;28;20055;-71
2022/11/09 06:13:28;;;;;;;21.58;10.95;;;23.20;49.90;;;;;;5034903;28;20036;-71
2022/11/09 06:15:59;;;;;;;15.18;10.32;;;23.10;50.10;;;;;;5034869;28;20041;-72
2022/11/09 06:18:27;;;;;;;13.05;9.80;;;23.20;51.90;;;;;;5034512;28;20128;-73
2022/11/09 06:20:55;;;;;;;18.27;10.10;;;23.20;51.20;;;;;;5034696;28;20037;-72
2022/11/09 06:23:24;;;;;;;18.05;10.15;;;23.10;50.80;;;;;;5034487;28;20091;-74
2022/11/09 06:25:52;;;;;;;13.75;8.63;;;23.00;50.90;;;;;;5049168;28;20509;-70
2022/11/09 06:28:18;;;;;;;18.02;10.43;;;23.00;52.00;;;;;;5034389;28;20614;-72
2022/11/09 06:30:44;;;;;;;17.70;11.25;;;23.00;52.40;;;;;;5034212;28;20052;-70
2022/11/09 06:33:10;;;;;;;19.20;11.80;;;23.10;52.00;;;;;;5015521;28;20046;-73
2022/11/09 06:35:36;;;;;;;19.67;12.70;;;23.00;53.00;;;;;;5034623;28;20415;-71
2022/11/09 06:38:02;;;;;;;18.45;11.63;;;23.10;51.70;;;;;;5034359;28;20479;-72
2022/11/09 06:40:29;;;;;;;17.95;10.48;;;23.10;51.90;;;;;;5048575;28;20041;-71
2022/11/09 06:42:59;;;;;;;17.42;8.70;;;23.00;51.00;;;;;;5034479;28;20037;-71
2022/11/09 06:45:27;;;;;;;13.90;8.65;;;23.00;48.00;;;;;;5033093;28;20405;-71
2022/11/09 06:48:02;;;;;;;18.85;9.23;;;23.00;49.00;;;;;;5033057;28;20033;-72
2022/11/09 06:50:31;;;;;;;18.48;10.27;;;23.00;51.90;;;;;;5034239;28;20052;-72
2022/11/09 06:52:59;;;;;;;18.33;10.48;;;23.10;57.80;;;;;;5034190;28;20079;-73
2022/11/09 06:55:30;;;;;;;22.20;10.38;;;23.20;57.90;;;;;;5034049;28;20041;-72
2022/11/09 06:57:56;;;;;;;18.45;10.15;;;23.20;58.40;;;;;;5033619;28;20042;-71
2022/11/09 07:00:24;;;;;;;18.58;10.68;;;23.20;58.50;;;;;;5042582;28;20571;-72
2022/11/09 07:02:50;;;;;;;16.30;10.07;;;23.10;58.70;;;;;;5040805;28;20431;-72
2022/11/09 07:05:17;;;;;;;17.00;11.80;;;23.10;59.70;;;;;;5054026;28;20032;-76
2022/11/09 07:07:43;;;;;;;24.83;10.75;;;23.10;62.00;;;;;;5046187;28;20053;-73
2022/11/09 07:10:09;;;;;;;24.70;13.82;;;23.00;59.60;;;;;;5053638;28;20035;-75
2022/11/09 07:12:36;;;;;;;20.75;11.15;;;22.90;57.70;;;;;;5053267;28;20075;-73
2022/11/09 07:15:03;;;;;;;15.82;9.70;;;22.80;58.90;;;;;;5050644;28;20132;-70
2022/11/09 07:17:31;;;;;;;19.42;8.65;;;23.00;60.00;;;;;;5053742;28;20490;-73
2022/11/09 07:19:57;;;;;;;23.33;11.25;;;22.90;60.50;;;;;;5053338;28;20059;-72
2022/11/09 07:22:23;;;;;;;17.38;7.65;;;23.00;59.60;;;;;;5053660;28;20025;-71
2022/11/09 07:24:49;;;;;;;22.75;11.77;;;23.10;58.80;;;;;;5053595;28;20393;-69
2022/11/09 07:27:15;;;;;;;24.58;11.98;;;23.20;58.30;;;;;;5053594;28;20120;-71
2022/11/09 07:29:41;;;;;;;17.80;10.05;;;23.20;57.90;;;;;;5035707;28;20041;-73
2022/11/09 07:32:07;;;;;;;15.57;8.80;;;23.20;57.40;;;;;;5035393;28;20034;-72
2022/11/09 07:34:33;;;;;;;19.10;8.57;;;23.40;57.00;;;;;;5053379;28;20032;-73
2022/11/09 07:36:59;;;;;;;16.05;9.65;;;23.30;56.70;;;;;;5053132;28;20049;-72
2022/11/09 07:39:25;;;;;;;18.50;9.95;;;23.30;56.50;;;;;;5053158;28;20100;-71
2022/11/09 07:41:51;;;;;;;18.55;8.43;;;23.30;56.00;;;;;;5053023;28;20037;-71
2022/11/09 07:44:19;;;;;;;13.45;9.10;;;23.50;55.70;;;;;;5052291;28;20405;-74
2022/11/09 07:46:47;;;;;;;19.05;10.38;;;23.30;55.30;;;;;;5051778;28;20072;-72
2022/11/09 07:49:15;;;;;;;18.27;9.90;;;23.50;55.50;;;;;;5053071;28;20041;-72
2022/11/09 07:51:42;;;;;;;24.88;10.25;;;23.50;55.30;;;;;;5053119;28;20489;-70
2022/11/09 07:54:09;;;;;;;18.35;9.23;;;23.50;55.20;;;;;;5052870;28;20478;-74
2022/11/09 07:56:35;;;;;;;18.50;10.13;;;23.50;55.10;;;;;;5051729;28;20403;-70
2022/11/09 07:59:02;;;;;;;19.17;11.30;;;23.60;54.90;;;;;;5052896;28;20052;-74
2022/11/09 08:01:28;;;;;;;13.65;8.38;;;23.50;54.80;;;;;;5052867;28;20079;-70
2022/11/09 08:03:54;;;;;;;24.48;10.93;;;23.50;54.60;;;;;;5052623;28;20037;-73
2022/11/09 08:06:23;;;;;;;23.65;10.95;;;23.60;54.50;;;;;;5050270;28;20029;-77
2022/11/09 08:08:49;;;;;;;15.55;9.90;;;23.50;54.30;;;;;;5032421;28;20041;-74
2022/11/09 08:11:15;;;;;;;22.70;11.30;;;23.70;54.40;;;;;;5032620;28;20053;-74
2022/11/09 08:13:41;;;;;;;15.25;8.63;;;23.50;54.10;;;;;;5032701;28;20147;-72
2022/11/09 08:16:07;;;;;;;18.08;9.57;;;23.60;54.10;;;;;;5031398;28;20057;-72
2022/11/09 08:18:33;;;;;;;22.42;8.93;;;23.60;54.00;;;;;;5032529;28;20107;-73
2022/11/09 08:21:03;;;;;;;20.98;11.23;;;23.70;54.20;;;;;;5032325;28;20056;-73
2022/11/09 08:23:30;;;;;;;18.58;9.57;;;23.70;54.60;;;;;;5032486;28;20561;-73
2022/11/09 08:25:56;;;;;;;16.38;10.32;;;23.70;55.00;;;;;;5029311;28;20064;-71
2022/11/09 08:28:22;;;;;;;17.15;9.10;;;23.70;57.30;;;;;;5031074;28;20051;-74
2022/11/09 08:31:00;;;;;;;23.17;10.85;;;23.60;56.80;;;;;;5055932;28;20041;-73
2022/11/09 08:33:28;;;;;;;17.17;10.80;;;23.70;55.20;;;;;;5032274;28;20168;-72
2022/11/09 08:35:54;;;;;;;21.00;10.27;;;23.50;55.10;;;;;;5032309;28;20717;-73
2022/11/09 08:38:20;;;;;;;17.90;9.30;;;23.60;55.70;;;;;;5046501;28;20615;-74
2022/11/09 08:40:46;;;;;;;14.20;7.57;;;23.50;55.60;;;;;;5032040;28;20107;-74
2022/11/09 08:43:12;;;;;;;12.93;8.25;;;23.60;55.90;;;;;;5032016;28;20057;-74
2022/11/09 08:45:40;;;;;;;14.98;8.00;;;23.50;56.30;;;;;;5031971;28;20094;-72
2022/11/09 08:48:08;;;;;;;14.05;7.45;;;23.60;56.40;;;;;;5031963;28;20037;-73
2022/11/09 08:50:36;;;;;;;12.20;7.57;;;23.60;56.30;;;;;;5031969;28;20037;-74
2022/11/09 08:53:03;;;;;;;14.35;7.65;;;23.60;56.00;;;;;;5031750;28;20030;-72
2022/11/09 08:55:30;;;;;;;11.93;7.15;;;23.60;56.50;;;;;;5032031;28;20047;-71
2022/11/09 08:57:57;;;;;;;14.13;7.68;;;23.60;56.50;;;;;;5031839;28;20482;-72
2022/11/09 09:00:24;;;;;;;10.95;6.55;;;23.60;56.50;;;;;;5030511;28;20025;-73
2022/11/09 09:02:50;;;;;;;14.20;7.22;;;23.60;56.80;;;;;;5031246;28;20122;-74
2022/11/09 09:05:16;;;;;;;9.93;6.85;;;23.60;57.00;;;;;;5031669;28;20109;-71
2022/11/09 09:07:42;;;;;;;12.13;6.40;;;23.60;57.30;;;;;;5039999;28;20053;-72
2022/11/09 09:10:08;;;;;;;10.10;6.93;;;23.70;57.40;;;;;;5031480;28;20048;-70
2022/11/09 09:12:35;;;;;;;10.13;7.10;;;23.70;56.90;;;;;;5031682;28;20371;-71
2022/11/09 09:15:01;;;;;;;10.30;6.25;;;23.70;52.20;;;;;;5031708;28;20043;-71
2022/11/09 09:17:27;;;;;;;12.73;7.63;;;23.80;51.40;;;;;;5031213;28;20033;-71
2022/11/09 09:19:53;;;;;;;19.17;8.30;;;23.80;51.90;;;;;;5031352;28;20030;-70
2022/11/09 09:22:19;;;;;;;18.38;8.45;;;23.90;51.00;;;;;;5031625;28;20041;-71
2022/11/09 09:24:45;;;;;;;10.23;6.45;;;23.80;49.80;;;;;;5030442;28;20038;-73
2022/11/09 09:27:11;;;;;;;10.50;6.95;;;23.90;54.00;;;;;;5031555;28;20114;-74
2022/11/09 09:29:37;;;;;;;15.00;7.75;;;24.10;56.20;;;;;;5031320;28;20025;-72
2022/11/09 09:32:04;;;;;;;12.85;7.65;;;24.10;53.60;;;;;;5031541;28;20088;-72
2022/11/09 09:34:30;;;;;;;13.80;6.85;;;24.00;56.50;;;;;;5030959;28;20060;-72
2022/11/09 09:36:56;;;;;;;12.13;6.22;;;24.00;55.80;;;;;;5031209;28;20030;-74
2022/11/09 09:39:22;;;;;;;10.48;7.43;;;24.10;56.40;;;;;;5031202;28;20022;-72
2022/11/09 09:41:55;;;;;;;14.80;9.07;;;24.00;56.10;;;;;;5031055;28;20069;-71
2022/11/09 09:44:28;;;;;;;;;;;23.90;50.20;;;;;;5031962;28;20042;-75
2022/11/09 09:47:14;;;;;;;12.57;8.00;;;24.00;50.10;;;;;;5031269;28;19924;-72
2022/11/09 09:49:45;;;;;;;17.02;11.70;;;24.10;52.30;;;;;;5031275;28;20035;-73
2022/11/09 09:52:17;;;;;;;14.85;9.23;;;24.20;56.40;;;;;;5031005;28;20507;-72
2022/11/09 09:55:17;;;;;;;15.95;9.52;;;24.30;48.90;;;;;;5031067;28;20117;-71
2022/11/09 09:57:50;;;;;;;13.75;9.40;;;24.30;48.30;;;;;;5029062;28;20077;-71
2022/11/09 10:00:25;;;;;;;14.05;9.13;;;24.20;49.10;;;;;;5031039;28;20043;-72
2022/11/09 10:02:53;;;;;;;16.25;9.35;;;24.10;49.50;;;;;;5030869;28;20466;-76
2022/11/09 10:05:26;;;;;;;17.75;9.65;;;24.30;50.70;;;;;;5031225;28;20033;-72
2022/11/09 10:08:13;;;;;;;16.23;10.00;;;24.30;51.00;;;;;;5046459;28;20044;-72
2022/11/09 10:11:05;;;;;;;19.05;10.40;;;24.30;48.70;;;;;;5050835;28;20071;-71
2022/11/09 10:13:34;;;;;;;11.90;8.60;;;24.20;49.30;;;;;;5051061;28;20061;-72
2022/11/09 10:16:11;;;;;;;16.25;10.52;;;24.30;49.00;;;;;;5050926;28;20362;-71
2022/11/09 10:18:52;;;;;;;17.08;9.73;;;24.20;49.50;;;;;;5050503;28;20563;-71
2022/11/09 10:21:35;;;;;;;15.18;10.20;;;24.20;49.80;;;;;;5043781;28;20510;-70
2022/11/09 10:24:04;;;;;;;18.20;9.90;;;24.30;49.90;;;;;;5029216;28;20026;-69
2022/11/09 10:26:48;;;;;;;10.88;8.48;;;24.20;50.50;;;;;;5030782;28;20545;-70
2022/11/09 10:29:43;;;;;;;12.88;9.15;;;24.10;50.90;;;;;;5010949;28;20049;-69
2022/11/09 10:32:14;;;;;;;18.33;10.13;;;24.20;49.50;;;;;;4988437;28;20051;-69
2022/11/09 10:34:48;;;;;;;14.23;10.02;;;24.20;49.50;;;;;;4988712;28;20074;-70
2022/11/09 10:37:23;;;;;;;17.30;10.73;;;24.20;48.80;;;;;;4988567;28;20093;-71
2022/11/09 10:40:20;;;;;;;15.05;9.40;;;24.20;48.20;;;;;;4996527;28;20041;-71
2022/11/09 10:43:14;;;;;;;15.90;10.38;;;24.10;56.80;;;;;;4930667;29;20115;-69
2022/11/09 10:46:03;;;;;;;17.55;10.77;;;24.30;57.60;;;;;;4930984;29;20043;-70
2022/11/09 10:48:48;;;;;;;18.48;10.27;;;24.70;64.90;;;;;;4932376;29;20047;-70
2022/11/09 10:51:46;;;;;;;20.73;10.85;;;25.00;58.20;;;;;;4918162;29;20720;-70
2022/11/09 10:54:36;;;;;;;15.88;9.23;;;24.90;55.30;;;;;;4934386;29;20047;-71
2022/11/09 10:57:23;;;;;;;17.65;9.75;;;24.80;56.30;;;;;;4934276;29;20055;-71
2022/11/09 11:00:16;;;;;;;17.25;9.82;;;24.70;56.00;;;;;;4933989;29;20062;-70
2022/11/09 11:03:14;;;;;;;15.82;10.02;;;24.70;55.60;;;;;;4933786;29;20562;-69
2022/11/09 11:06:01;;;;;;;21.85;12.75;;;24.80;59.90;;;;;;4933818;29;20102;-68
2022/11/09 11:08:47;;;;;;;22.17;12.13;;;25.00;58.40;;;;;;4940535;29;20051;-68
2022/11/09 11:11:34;;;;;;;15.48;10.73;;;25.30;57.60;;;;;;4952803;29;20062;-70
2022/11/09 11:14:30;;;;;;;15.82;9.43;;;25.30;57.30;;;;;;4952611;29;20504;-69
2022/11/09 11:17:24;;;;;;;20.17;10.68;;;25.30;58.20;;;;;;4953217;28;20047;-66
2022/11/09 11:20:29;;;;;;;19.95;9.52;;;25.20;52.10;;;;;;5006246;28;20410;-69
2022/11/09 11:23:18;;;;;;;17.70;10.68;;;25.10;54.50;;;;;;5014100;28;20049;-70
2022/11/09 11:26:11;;;;;;;19.65;9.90;;;25.10;55.40;;;;;;5013994;28;20034;-70
2022/11/09 11:29:03;;;;;;;20.05;10.25;;;24.90;54.20;;;;;;5013742;28;20049;-70
2022/11/09 11:31:48;;;;;;;12.43;8.68;;;24.80;53.00;;;;;;5013639;28;20042;-70
2022/11/09 11:34:36;;;;;;;16.15;9.40;;;24.80;55.10;;;;;;5013467;28;20056;-69
2022/11/09 11:37:36;;;;;;;14.35;10.05;;;24.80;55.80;;;;;;5012652;28;20029;-70
2022/11/09 11:40:31;;;;;;;17.17;9.30;;;24.70;50.80;;;;;;5013475;28;20088;-71
2022/11/09 11:43:27;;;;;;;17.30;8.88;;;24.60;48.30;;;;;;5013560;28;20117;-69
2022/11/09 11:46:33;;;;;;;16.05;10.02;;;24.60;48.30;;;;;;5013448;28;20037;-70
2022/11/09 11:50:00;;;;;;;17.63;9.85;;;24.60;48.00;;;;;;5013367;28;20104;-70
2022/11/09 11:52:56;;;;;;;14.35;8.75;;;24.70;49.20;;;;;;4990943;28;20065;-70
2022/11/09 11:56:14;;;;;;;16.45;10.02;;;24.60;56.60;;;;;;4991216;28;20069;-69
2022/11/09 11:59:19;;;;;;;18.45;10.90;;;24.60;56.40;;;;;;4991200;28;20522;-70
2022/11/09 12:02:40;;;;;;;15.48;9.82;;;24.50;56.40;;;;;;4991173;28;20076;-70
2022/11/09 12:05:49;;;;;;;17.60;9.43;;;24.60;56.90;;;;;;4991111;28;20046;-70
2022/11/09 12:08:36;;;;;;;15.38;8.35;;;24.50;56.50;;;;;;5030240;28;20542;-68
2022/11/09 12:11:53;;;;;;;13.98;9.15;;;24.50;56.50;;;;;;5030454;28;20107;-69
2022/11/09 12:14:58;;;;;;;15.90;9.32;;;24.30;56.50;;;;;;4971185;28;20501;-70
2022/11/09 12:17:51;;;;;;;15.77;10.82;;;24.40;56.40;;;;;;4954839;28;20063;-70
2022/11/09 12:20:55;;;;;;;14.02;9.30;;;24.10;54.50;;;;;;4952030;28;20046;-71
2022/11/09 12:24:13;;;;;;;18.80;9.45;;;24.10;56.60;;;;;;4951460;29;20487;-70
2022/11/09 12:27:23;;;;;;;18.73;9.30;;;24.10;56.50;;;;;;4951717;29;20062;-70
2022/11/09 12:30:19;;;;;;;14.80;8.40;;;24.00;56.80;;;;;;4967909;28;20452;-68
2022/11/09 12:33:14;;;;;;;17.65;9.40;;;23.90;57.20;;;;;;4959693;28;20043;-66
2022/11/09 12:36:06;;;;;;;18.55;9.43;;;24.00;57.10;;;;;;4971222;28;20063;-69
2022/11/09 12:39:05;;;;;;;17.02;10.40;;;24.10;57.20;;;;;;4951605;29;20169;-69
2022/11/09 12:41:51;;;;;;;18.95;9.63;;;24.00;55.30;;;;;;4951685;28;20047;-69
2022/11/09 12:44:50;;;;;;;14.25;8.05;;;24.10;55.20;;;;;;4952329;28;20536;-68
2022/11/09 12:47:40;;;;;;;17.90;8.90;;;24.20;54.70;;;;;;4957687;28;20461;-68
2022/11/09 12:50:26;;;;;;;17.13;9.02;;;24.10;53.10;;;;;;5009842;28;20383;-69
2022/11/09 12:53:11;;;;;;;19.25;9.82;;;24.20;52.50;;;;;;5031848;28;20083;-69
2022/11/09 12:56:12;;;;;;;14.68;8.48;;;24.10;51.80;;;;;;5031519;28;20056;-70
2022/11/09 12:59:25;;;;;;;15.45;9.27;;;24.10;52.40;;;;;;5030839;28;20029;-70
2022/11/09 13:02:36;;;;;;;16.73;7.82;;;24.20;53.50;;;;;;5023021;28;20061;-70